sensor_id;sensor_type;location;lat;lon;timestamp;pressure;altitude;pressure_sealevel;temperature;humidity
64139;BME280;50435;43.700;-79.318;2023-02-17T00:01:29;99878.51;;;2.62;47.94
64139;BME280;50435;43.700;-79.318;2023-02-17T00:03:57;99889.95;;;2.69;47.88
64139;BME280;50435;43.700;-79.318;2023-02-17T00:06:27;99886.87;;;2.50;48.31
64139;BME280;50435;43.700;-79.318;2023-02-17T00:08:55;99907.15;;;2.53;48.12
64139;BME280;50435;43.700;-79.318;2023-02-17T00:11:22;99901.26;;;2.93;48.53
64139;BME280;50435;43.700;-79.318;2023-02-17T00:13:51;99892.59;;;2.48;48.41
64139;BME280;50435;43.700;-79.318;2023-02-17T00:16:21;99873.03;;;2.97;48.34
64139;BME280;50435;43.700;-79.318;2023-02-17T00:18:52;99869.46;;;2.46;48.25
64139;BME280;50435;43.700;-79.318;2023-02-17T00:21:21;99871.01;;;2.47;48.21
64139;BME280;50435;43.700;-79.318;2023-02-17T00:23:51;99866.40;;;2.46;48.11
64139;BME280;50435;43.700;-79.318;2023-02-17T00:26:19;99845.29;;;2.43;48.39
64139;BME280;50435;43.700;-79.318;2023-02-17T00:28:48;99843.31;;;2.58;48.56
64139;BME280;50435;43.700;-79.318;2023-02-17T00:31:18;99848.94;;;2.28;48.72
64139;BME280;50435;43.700;-79.318;2023-02-17T00:33:46;99837.41;;;2.70;48.11
64139;BME280;50435;43.700;-79.318;2023-02-17T00:36:15;99826.77;;;2.25;48.71
64139;BME280;50435;43.700;-79.318;2023-02-17T00:38:43;99808.94;;;2.79;48.64
64139;BME280;50435;43.700;-79.318;2023-02-17T00:41:10;99780.68;;;2.74;48.68
64139;BME280;50435;43.700;-79.318;2023-02-17T00:43:37;99763.20;;;2.26;48.64
64139;BME280;50435;43.700;-79.318;2023-02-17T00:46:05;99783.10;;;2.72;48.51
64139;BME280;50435;43.700;-79.318;2023-02-17T00:48:33;99780.82;;;2.72;48.76
64139;BME280;50435;43.700;-79.318;2023-02-17T00:51:00;99779.54;;;2.39;48.73
64139;BME280;50435;43.700;-79.318;2023-02-17T00:53:28;99794.66;;;2.21;48.66
64139;BME280;50435;43.700;-79.318;2023-02-17T00:55:55;99797.24;;;2.45;48.64
64139;BME280;50435;43.700;-79.318;2023-02-17T00:58:23;99801.76;;;2.11;48.73
64139;BME280;50435;43.700;-79.318;2023-02-17T01:00:50;99783.59;;;2.61;48.87
64139;BME280;50435;43.700;-79.318;2023-02-17T01:03:18;99770.67;;;2.19;48.67
64139;BME280;50435;43.700;-79.318;2023-02-17T01:05:47;99762.10;;;2.68;48.69
64139;BME280;50435;43.700;-79.318;2023-02-17T01:08:16;99740.89;;;2.63;48.79
64139;BME280;50435;43.700;-79.318;2023-02-17T01:10:45;99721.16;;;2.07;48.65
64139;BME280;50435;43.700;-79.318;2023-02-17T01:13:15;99702.77;;;2.10;48.89
64139;BME280;50435;43.700;-79.318;2023-02-17T01:15:45;99676.88;;;2.56;48.79
64139;BME280;50435;43.700;-79.318;2023-02-17T01:18:17;99651.66;;;2.14;48.73
64139;BME280;50435;43.700;-79.318;2023-02-17T01:20:45;99648.99;;;2.13;48.71
64139;BME280;50435;43.700;-79.318;2023-02-17T01:23:13;99637.89;;;2.61;48.53
64139;BME280;50435;43.700;-79.318;2023-02-17T01:25:42;99632.16;;;2.33;48.71
64139;BME280;50435;43.700;-79.318;2023-02-17T01:28:14;99627.60;;;2.21;48.48
64139;BME280;50435;43.700;-79.318;2023-02-17T01:30:42;99612.97;;;2.66;48.38
64139;BME280;50435;43.700;-79.318;2023-02-17T01:33:09;99591.74;;;2.06;48.70
64139;BME280;50435;43.700;-79.318;2023-02-17T01:35:36;99563.88;;;2.07;48.72
64139;BME280;50435;43.700;-79.318;2023-02-17T01:38:04;99550.20;;;2.54;48.57
64139;BME280;50435;43.700;-79.318;2023-02-17T01:40:31;99531.39;;;2.55;48.63
64139;BME280;50435;43.700;-79.318;2023-02-17T01:42:59;99517.37;;;2.34;48.49
64139;BME280;50435;43.700;-79.318;2023-02-17T01:45:35;99506.08;;;2.00;48.66
64139;BME280;50435;43.700;-79.318;2023-02-17T01:48:06;99504.38;;;2.21;48.89
64139;BME280;50435;43.700;-79.318;2023-02-17T01:50:37;99509.24;;;2.40;48.61
64139;BME280;50435;43.700;-79.318;2023-02-17T01:53:08;99500.15;;;2.37;48.89
64139;BME280;50435;43.700;-79.318;2023-02-17T01:55:40;99492.86;;;2.05;48.96
64139;BME280;50435;43.700;-79.318;2023-02-17T01:58:10;99482.36;;;2.37;48.95
64139;BME280;50435;43.700;-79.318;2023-02-17T02:00:39;99463.60;;;2.36;48.61
64139;BME280;50435;43.700;-79.318;2023-02-17T02:03:10;99475.04;;;2.07;49.10
64139;BME280;50435;43.700;-79.318;2023-02-17T02:05:40;99464.51;;;2.42;48.78
64139;BME280;50435;43.700;-79.318;2023-02-17T02:08:10;99461.90;;;2.35;48.91
64139;BME280;50435;43.700;-79.318;2023-02-17T02:10:38;99485.54;;;2.00;49.09
64139;BME280;50435;43.700;-79.318;2023-02-17T02:13:06;99477.74;;;2.28;49.17
64139;BME280;50435;43.700;-79.318;2023-02-17T02:15:38;99468.33;;;1.76;49.11
64139;BME280;50435;43.700;-79.318;2023-02-17T02:18:20;99469.37;;;2.28;49.10
64139;BME280;50435;43.700;-79.318;2023-02-17T02:21:38;99463.70;;;1.98;49.07
64139;BME280;50435;43.700;-79.318;2023-02-17T02:24:16;99496.43;;;2.29;48.64
64139;BME280;50435;43.700;-79.318;2023-02-17T02:27:25;99515.84;;;1.81;49.01
64139;BME280;50435;43.700;-79.318;2023-02-17T02:30:09;99517.11;;;2.25;49.20
64139;BME280;50435;43.700;-79.318;2023-02-17T02:32:53;99520.32;;;2.32;48.96
64139;BME280;50435;43.700;-79.318;2023-02-17T02:35:30;99536.47;;;2.25;49.09
64139;BME280;50435;43.700;-79.318;2023-02-17T02:38:03;99571.47;;;1.99;49.03
64139;BME280;50435;43.700;-79.318;2023-02-17T02:40:35;99593.05;;;1.73;49.08
64139;BME280;50435;43.700;-79.318;2023-02-17T02:43:03;99591.36;;;1.98;49.05
64139;BME280;50435;43.700;-79.318;2023-02-17T02:45:31;99549.13;;;2.18;49.34
64139;BME280;50435;43.700;-79.318;2023-02-17T02:47:59;99545.97;;;2.21;49.26
64139;BME280;50435;43.700;-79.318;2023-02-17T02:50:39;99549.24;;;2.13;49.47
64139;BME280;50435;43.700;-79.318;2023-02-17T02:53:35;99541.45;;;2.16;49.35
64139;BME280;50435;43.700;-79.318;2023-02-17T02:56:15;99529.73;;;2.13;49.33
64139;BME280;50435;43.700;-79.318;2023-02-17T02:58:49;99513.14;;;2.12;49.26
64139;BME280;50435;43.700;-79.318;2023-02-17T03:01:25;99483.16;;;2.11;49.15
64139;BME280;50435;43.700;-79.318;2023-02-17T03:04:03;99461.35;;;1.65;49.26
64139;BME280;50435;43.700;-79.318;2023-02-17T03:06:38;99443.24;;;2.21;48.99
64139;BME280;50435;43.700;-79.318;2023-02-17T03:09:13;99425.19;;;2.10;49.24
64139;BME280;50435;43.700;-79.318;2023-02-17T03:11:44;99399.47;;;1.85;49.27
64139;BME280;50435;43.700;-79.318;2023-02-17T03:14:15;99373.33;;;2.09;49.16
64139;BME280;50435;43.700;-79.318;2023-02-17T03:16:43;99377.37;;;2.02;49.51
64139;BME280;50435;43.700;-79.318;2023-02-17T03:19:13;99401.89;;;2.08;49.37
64139;BME280;50435;43.700;-79.318;2023-02-17T03:21:45;99419.86;;;2.14;49.27
64139;BME280;50435;43.700;-79.318;2023-02-17T03:24:14;99420.70;;;2.11;49.27
64139;BME280;50435;43.700;-79.318;2023-02-17T03:26:41;99417.46;;;2.11;49.13
64139;BME280;50435;43.700;-79.318;2023-02-17T03:29:09;99400.65;;;2.06;49.38
64139;BME280;50435;43.700;-79.318;2023-02-17T03:31:38;99417.69;;;2.03;49.47
64139;BME280;50435;43.700;-79.318;2023-02-17T03:34:06;99403.93;;;2.03;49.58
64139;BME280;50435;43.700;-79.318;2023-02-17T03:36:34;99376.46;;;2.03;49.46
64139;BME280;50435;43.700;-79.318;2023-02-17T03:39:01;99347.96;;;1.98;49.59
64139;BME280;50435;43.700;-79.318;2023-02-17T03:41:28;99342.39;;;1.95;49.78
64139;BME280;50435;43.700;-79.318;2023-02-17T03:43:55;99331.94;;;2.00;49.51
64139;BME280;50435;43.700;-79.318;2023-02-17T03:46:23;99337.97;;;2.01;49.54
64139;BME280;50435;43.700;-79.318;2023-02-17T03:48:50;99345.59;;;2.04;49.36
64139;BME280;50435;43.700;-79.318;2023-02-17T03:51:20;99359.58;;;2.05;49.49
64139;BME280;50435;43.700;-79.318;2023-02-17T03:53:48;99360.94;;;2.01;49.42
64139;BME280;50435;43.700;-79.318;2023-02-17T03:56:16;99373.39;;;2.01;49.61
64139;BME280;50435;43.700;-79.318;2023-02-17T03:58:44;99383.54;;;1.99;49.64
64139;BME280;50435;43.700;-79.318;2023-02-17T04:01:13;99374.59;;;2.01;49.51
64139;BME280;50435;43.700;-79.318;2023-02-17T04:03:41;99350.32;;;2.00;49.49
64139;BME280;50435;43.700;-79.318;2023-02-17T04:06:09;99303.94;;;2.15;49.61
64139;BME280;50435;43.700;-79.318;2023-02-17T04:08:38;99274.88;;;1.68;49.65
64139;BME280;50435;43.700;-79.318;2023-02-17T04:11:07;99250.34;;;1.96;49.62
64139;BME280;50435;43.700;-79.318;2023-02-17T04:13:35;99242.06;;;1.99;49.57
64139;BME280;50435;43.700;-79.318;2023-02-17T04:16:04;99231.92;;;1.95;49.56
64139;BME280;50435;43.700;-79.318;2023-02-17T04:18:33;99212.87;;;1.99;49.60
64139;BME280;50435;43.700;-79.318;2023-02-17T04:21:00;99228.09;;;1.78;49.46
64139;BME280;50435;43.700;-79.318;2023-02-17T04:23:28;99229.90;;;2.03;49.53
64139;BME280;50435;43.700;-79.318;2023-02-17T04:25:55;99233.42;;;2.03;49.41
64139;BME280;50435;43.700;-79.318;2023-02-17T04:28:23;99262.95;;;1.97;49.65
64139;BME280;50435;43.700;-79.318;2023-02-17T04:30:50;99263.46;;;1.99;49.59
64139;BME280;50435;43.700;-79.318;2023-02-17T04:33:18;99252.21;;;1.99;49.28
64139;BME280;50435;43.700;-79.318;2023-02-17T04:35:46;99234.41;;;2.02;49.39
64139;BME280;50435;43.700;-79.318;2023-02-17T04:38:15;99232.43;;;1.96;49.52
64139;BME280;50435;43.700;-79.318;2023-02-17T04:40:43;99233.38;;;1.90;49.75
64139;BME280;50435;43.700;-79.318;2023-02-17T04:43:10;99223.40;;;1.97;49.39
64139;BME280;50435;43.700;-79.318;2023-02-17T04:45:37;99227.97;;;1.96;49.55
64139;BME280;50435;43.700;-79.318;2023-02-17T04:48:05;99209.79;;;1.92;49.45
64139;BME280;50435;43.700;-79.318;2023-02-17T04:50:32;99223.17;;;1.94;49.53
64139;BME280;50435;43.700;-79.318;2023-02-17T04:52:59;99236.79;;;1.97;49.45
64139;BME280;50435;43.700;-79.318;2023-02-17T04:55:27;99222.65;;;1.93;49.60
64139;BME280;50435;43.700;-79.318;2023-02-17T04:57:54;99213.19;;;1.90;49.84
64139;BME280;50435;43.700;-79.318;2023-02-17T05:00:21;99197.96;;;1.91;49.84
64139;BME280;50435;43.700;-79.318;2023-02-17T05:02:49;99178.24;;;1.45;49.67
64139;BME280;50435;43.700;-79.318;2023-02-17T05:05:17;99186.61;;;1.43;49.69
64139;BME280;50435;43.700;-79.318;2023-02-17T05:07:45;99183.34;;;1.93;49.64
64139;BME280;50435;43.700;-79.318;2023-02-17T05:10:13;99190.45;;;1.97;49.57
64139;BME280;50435;43.700;-79.318;2023-02-17T05:12:41;99200.90;;;1.96;49.44
64139;BME280;50435;43.700;-79.318;2023-02-17T05:15:09;99198.07;;;2.00;49.68
64139;BME280;50435;43.700;-79.318;2023-02-17T05:17:38;99203.86;;;1.94;49.62
64139;BME280;50435;43.700;-79.318;2023-02-17T05:20:07;99177.44;;;1.95;49.53
64139;BME280;50435;43.700;-79.318;2023-02-17T05:22:35;99160.44;;;1.92;49.61
64139;BME280;50435;43.700;-79.318;2023-02-17T05:25:03;99142.65;;;1.94;49.76
64139;BME280;50435;43.700;-79.318;2023-02-17T05:27:30;99112.97;;;1.94;49.65
64139;BME280;50435;43.700;-79.318;2023-02-17T05:29:58;99097.37;;;1.91;49.68
64139;BME280;50435;43.700;-79.318;2023-02-17T05:32:25;99086.82;;;1.94;49.69
64139;BME280;50435;43.700;-79.318;2023-02-17T05:34:52;99084.48;;;1.95;49.73
64139;BME280;50435;43.700;-79.318;2023-02-17T05:37:20;99070.04;;;1.92;49.30
64139;BME280;50435;43.700;-79.318;2023-02-17T05:39:47;99060.22;;;1.93;49.64
64139;BME280;50435;43.700;-79.318;2023-02-17T05:42:14;99036.80;;;1.95;49.63
64139;BME280;50435;43.700;-79.318;2023-02-17T05:44:42;99029.37;;;1.95;49.54
64139;BME280;50435;43.700;-79.318;2023-02-17T05:47:09;99028.57;;;1.94;49.72
64139;BME280;50435;43.700;-79.318;2023-02-17T05:49:36;99032.13;;;1.91;49.71
64139;BME280;50435;43.700;-79.318;2023-02-17T05:52:04;99018.67;;;1.95;49.72
64139;BME280;50435;43.700;-79.318;2023-02-17T05:54:31;99020.62;;;1.97;49.24
64139;BME280;50435;43.700;-79.318;2023-02-17T05:56:58;99018.47;;;1.96;49.62
64139;BME280;50435;43.700;-79.318;2023-02-17T05:59:26;99003.39;;;1.94;49.82
64139;BME280;50435;43.700;-79.318;2023-02-17T06:01:53;99001.36;;;1.63;49.77
64139;BME280;50435;43.700;-79.318;2023-02-17T06:04:20;98999.91;;;1.91;49.72
64139;BME280;50435;43.700;-79.318;2023-02-17T06:06:48;99037.43;;;1.62;49.91
64139;BME280;50435;43.700;-79.318;2023-02-17T06:09:15;99071.30;;;1.60;50.06
64139;BME280;50435;43.700;-79.318;2023-02-17T06:11:42;99109.54;;;1.88;49.84
64139;BME280;50435;43.700;-79.318;2023-02-17T06:14:10;99043.30;;;1.79;49.99
64139;BME280;50435;43.700;-79.318;2023-02-17T06:16:37;99027.83;;;1.82;49.92
64139;BME280;50435;43.700;-79.318;2023-02-17T06:19:05;98992.17;;;1.79;50.03
64139;BME280;50435;43.700;-79.318;2023-02-17T06:21:32;98990.46;;;1.77;49.97
64139;BME280;50435;43.700;-79.318;2023-02-17T06:23:59;99019.24;;;1.86;49.87
64139;BME280;50435;43.700;-79.318;2023-02-17T06:26:26;99042.23;;;1.83;49.99
64139;BME280;50435;43.700;-79.318;2023-02-17T06:28:54;99056.31;;;1.80;50.03
64139;BME280;50435;43.700;-79.318;2023-02-17T06:31:21;99037.22;;;1.76;50.05
64139;BME280;50435;43.700;-79.318;2023-02-17T06:33:48;99009.09;;;1.78;50.03
64139;BME280;50435;43.700;-79.318;2023-02-17T06:36:16;99008.14;;;1.77;50.14
64139;BME280;50435;43.700;-79.318;2023-02-17T06:38:43;99003.56;;;1.82;50.01
64139;BME280;50435;43.700;-79.318;2023-02-17T06:41:10;98994.12;;;1.82;49.86
64139;BME280;50435;43.700;-79.318;2023-02-17T06:43:38;98961.46;;;1.81;49.98
64139;BME280;50435;43.700;-79.318;2023-02-17T06:46:05;98934.96;;;1.87;49.79
64139;BME280;50435;43.700;-79.318;2023-02-17T06:48:32;98937.17;;;1.81;49.92
64139;BME280;50435;43.700;-79.318;2023-02-17T06:51:00;98960.91;;;1.80;50.04
64139;BME280;50435;43.700;-79.318;2023-02-17T06:53:27;98980.66;;;1.85;49.92
64139;BME280;50435;43.700;-79.318;2023-02-17T06:55:54;98997.52;;;2.12;49.79
64139;BME280;50435;43.700;-79.318;2023-02-17T06:58:22;99019.34;;;1.88;49.90
64139;BME280;50435;43.700;-79.318;2023-02-17T07:00:49;99011.48;;;1.82;50.03
64139;BME280;50435;43.700;-79.318;2023-02-17T07:03:17;99021.62;;;1.33;50.01
64139;BME280;50435;43.700;-79.318;2023-02-17T07:05:44;99004.28;;;2.00;49.41
64139;BME280;50435;43.700;-79.318;2023-02-17T07:08:12;98989.43;;;1.94;49.54
64139;BME280;50435;43.700;-79.318;2023-02-17T07:10:39;98993.89;;;1.86;49.92
64139;BME280;50435;43.700;-79.318;2023-02-17T07:13:06;98997.71;;;1.81;49.91
64139;BME280;50435;43.700;-79.318;2023-02-17T07:15:34;98983.13;;;1.77;50.12
64139;BME280;50435;43.700;-79.318;2023-02-17T07:18:01;98991.02;;;1.79;50.05
64139;BME280;50435;43.700;-79.318;2023-02-17T07:20:28;98987.08;;;1.81;50.00
64139;BME280;50435;43.700;-79.318;2023-02-17T07:22:56;98983.90;;;1.79;49.94
64139;BME280;50435;43.700;-79.318;2023-02-17T07:25:23;98987.58;;;1.77;50.09
64139;BME280;50435;43.700;-79.318;2023-02-17T07:27:51;98980.50;;;1.76;49.91
64139;BME280;50435;43.700;-79.318;2023-02-17T07:30:19;98978.32;;;1.77;49.99
64139;BME280;50435;43.700;-79.318;2023-02-17T07:32:46;99001.54;;;1.72;50.07
64139;BME280;50435;43.700;-79.318;2023-02-17T07:35:13;99005.69;;;1.71;50.10
64139;BME280;50435;43.700;-79.318;2023-02-17T07:37:40;98977.02;;;1.80;49.99
64139;BME280;50435;43.700;-79.318;2023-02-17T07:40:08;98978.13;;;1.78;49.92
64139;BME280;50435;43.700;-79.318;2023-02-17T07:42:36;98975.33;;;1.83;49.81
64139;BME280;50435;43.700;-79.318;2023-02-17T07:45:04;98968.91;;;1.81;49.98
64139;BME280;50435;43.700;-79.318;2023-02-17T07:47:32;98975.87;;;1.76;50.10
64139;BME280;50435;43.700;-79.318;2023-02-17T07:49:59;98993.60;;;2.00;49.62
64139;BME280;50435;43.700;-79.318;2023-02-17T07:52:26;98998.87;;;1.80;49.46
64139;BME280;50435;43.700;-79.318;2023-02-17T07:54:53;99010.33;;;1.81;49.78
64139;BME280;50435;43.700;-79.318;2023-02-17T07:57:21;99016.15;;;1.84;49.55
64139;BME280;50435;43.700;-79.318;2023-02-17T07:59:48;98998.61;;;1.80;49.94
64139;BME280;50435;43.700;-79.318;2023-02-17T08:02:15;98983.25;;;1.81;49.84
64139;BME280;50435;43.700;-79.318;2023-02-17T08:04:43;98993.44;;;1.81;49.84
64139;BME280;50435;43.700;-79.318;2023-02-17T08:07:11;99013.76;;;1.75;50.06
64139;BME280;50435;43.700;-79.318;2023-02-17T08:09:38;99012.97;;;1.74;49.98
64139;BME280;50435;43.700;-79.318;2023-02-17T08:12:08;98990.76;;;2.03;49.70
64139;BME280;50435;43.700;-79.318;2023-02-17T08:14:41;99011.15;;;1.69;49.99
64139;BME280;50435;43.700;-79.318;2023-02-17T08:17:08;99051.42;;;1.74;49.90
64139;BME280;50435;43.700;-79.318;2023-02-17T08:19:35;99037.27;;;1.95;49.81
64139;BME280;50435;43.700;-79.318;2023-02-17T08:22:03;99027.94;;;1.76;49.69
64139;BME280;50435;43.700;-79.318;2023-02-17T08:24:30;99027.50;;;1.77;49.77
64139;BME280;50435;43.700;-79.318;2023-02-17T08:26:58;99042.50;;;1.75;49.82
64139;BME280;50435;43.700;-79.318;2023-02-17T08:29:26;99032.02;;;1.74;50.00
64139;BME280;50435;43.700;-79.318;2023-02-17T08:31:54;99023.12;;;1.70;49.80
64139;BME280;50435;43.700;-79.318;2023-02-17T08:34:21;99033.91;;;1.74;49.61
64139;BME280;50435;43.700;-79.318;2023-02-17T08:36:48;99012.74;;;1.70;49.89
64139;BME280;50435;43.700;-79.318;2023-02-17T08:39:16;99012.08;;;1.68;49.79
64139;BME280;50435;43.700;-79.318;2023-02-17T08:41:45;99002.15;;;1.37;49.93
64139;BME280;50435;43.700;-79.318;2023-02-17T08:44:14;98990.46;;;1.60;50.00
64139;BME280;50435;43.700;-79.318;2023-02-17T08:46:43;99025.70;;;2.08;49.94
64139;BME280;50435;43.700;-79.318;2023-02-17T08:49:11;99055.80;;;1.67;49.78
64139;BME280;50435;43.700;-79.318;2023-02-17T08:51:39;99061.36;;;1.65;49.68
64139;BME280;50435;43.700;-79.318;2023-02-17T08:54:08;99081.37;;;1.65;49.49
64139;BME280;50435;43.700;-79.318;2023-02-17T08:56:37;99073.51;;;1.85;49.50
64139;BME280;50435;43.700;-79.318;2023-02-17T08:59:06;99053.64;;;1.84;49.52
64139;BME280;50435;43.700;-79.318;2023-02-17T09:01:35;99057.67;;;1.79;49.81
64139;BME280;50435;43.700;-79.318;2023-02-17T09:04:04;99069.25;;;1.66;49.57
64139;BME280;50435;43.700;-79.318;2023-02-17T09:06:34;99064.53;;;1.56;49.65
64139;BME280;50435;43.700;-79.318;2023-02-17T09:09:04;99072.30;;;1.77;49.57
64139;BME280;50435;43.700;-79.318;2023-02-17T09:11:32;99076.18;;;1.84;49.20
64139;BME280;50435;43.700;-79.318;2023-02-17T09:13:59;99088.54;;;1.57;49.65
64139;BME280;50435;43.700;-79.318;2023-02-17T09:16:27;99071.72;;;1.80;49.63
64139;BME280;50435;43.700;-79.318;2023-02-17T09:18:54;99087.32;;;1.50;49.92
64139;BME280;50435;43.700;-79.318;2023-02-17T09:21:23;99085.16;;;1.53;49.36
64139;BME280;50435;43.700;-79.318;2023-02-17T09:23:51;99075.52;;;1.53;49.74
64139;BME280;50435;43.700;-79.318;2023-02-17T09:26:18;99074.42;;;1.45;49.69
64139;BME280;50435;43.700;-79.318;2023-02-17T09:28:47;99062.48;;;1.39;50.06
64139;BME280;50435;43.700;-79.318;2023-02-17T09:31:16;99067.46;;;1.60;50.01
64139;BME280;50435;43.700;-79.318;2023-02-17T09:33:45;99080.44;;;1.66;49.82
64139;BME280;50435;43.700;-79.318;2023-02-17T09:36:15;99109.15;;;1.30;50.09
64139;BME280;50435;43.700;-79.318;2023-02-17T09:38:43;99128.41;;;1.24;50.20
64139;BME280;50435;43.700;-79.318;2023-02-17T09:41:17;99142.32;;;1.20;49.87
64139;BME280;50435;43.700;-79.318;2023-02-17T09:43:45;99126.85;;;1.25;50.12
64139;BME280;50435;43.700;-79.318;2023-02-17T09:46:17;99130.69;;;1.38;50.30
64139;BME280;50435;43.700;-79.318;2023-02-17T09:48:48;99153.11;;;1.40;50.23
64139;BME280;50435;43.700;-79.318;2023-02-17T09:51:21;99186.94;;;1.35;50.35
64139;BME280;50435;43.700;-79.318;2023-02-17T09:53:59;99203.00;;;1.29;50.57
64139;BME280;50435;43.700;-79.318;2023-02-17T09:56:33;99206.34;;;1.21;50.71
64139;BME280;50435;43.700;-79.318;2023-02-17T09:59:07;99193.71;;;1.52;50.44
64139;BME280;50435;43.700;-79.318;2023-02-17T10:01:36;99208.98;;;1.27;50.56
64139;BME280;50435;43.700;-79.318;2023-02-17T10:04:09;99224.64;;;1.20;50.55
64139;BME280;50435;43.700;-79.318;2023-02-17T10:06:42;99229.89;;;1.11;50.70
64139;BME280;50435;43.700;-79.318;2023-02-17T10:09:15;99234.62;;;0.74;51.04
64139;BME280;50435;43.700;-79.318;2023-02-17T10:11:49;99256.53;;;1.14;50.50
64139;BME280;50435;43.700;-79.318;2023-02-17T10:14:23;99253.95;;;1.06;50.60
64139;BME280;50435;43.700;-79.318;2023-02-17T10:16:59;99265.03;;;0.97;50.65
64139;BME280;50435;43.700;-79.318;2023-02-17T10:19:30;99261.27;;;1.29;50.75
64139;BME280;50435;43.700;-79.318;2023-02-17T10:22:06;99276.18;;;0.93;50.99
64139;BME280;50435;43.700;-79.318;2023-02-17T10:24:34;99269.44;;;1.19;50.73
64139;BME280;50435;43.700;-79.318;2023-02-17T10:27:16;99266.45;;;0.74;50.63
64139;BME280;50435;43.700;-79.318;2023-02-17T10:29:50;99263.54;;;1.26;50.42
64139;BME280;50435;43.700;-79.318;2023-02-17T10:32:23;99281.48;;;0.72;50.71
64139;BME280;50435;43.700;-79.318;2023-02-17T10:35:02;99283.57;;;0.90;50.58
64139;BME280;50435;43.700;-79.318;2023-02-17T10:37:44;99276.85;;;0.98;50.96
64139;BME280;50435;43.700;-79.318;2023-02-17T10:40:17;99293.99;;;1.03;50.82
64139;BME280;50435;43.700;-79.318;2023-02-17T10:42:45;99296.13;;;1.08;50.73
64139;BME280;50435;43.700;-79.318;2023-02-17T10:45:20;99311.76;;;0.91;50.52
64139;BME280;50435;43.700;-79.318;2023-02-17T10:47:54;99317.17;;;0.84;51.22
64139;BME280;50435;43.700;-79.318;2023-02-17T10:50:24;99313.36;;;0.57;51.15
64139;BME280;50435;43.700;-79.318;2023-02-17T10:52:53;99305.42;;;0.84;50.78
64139;BME280;50435;43.700;-79.318;2023-02-17T10:55:28;99320.73;;;0.16;51.43
64139;BME280;50435;43.700;-79.318;2023-02-17T10:58:03;99323.24;;;0.50;51.30
64139;BME280;50435;43.700;-79.318;2023-02-17T11:00:32;99372.04;;;0.13;51.33
64139;BME280;50435;43.700;-79.318;2023-02-17T11:03:00;99372.46;;;0.25;51.81
64139;BME280;50435;43.700;-79.318;2023-02-17T11:05:29;99392.78;;;0.32;51.56
64139;BME280;50435;43.700;-79.318;2023-02-17T11:08:00;99396.43;;;0.23;51.52
64139;BME280;50435;43.700;-79.318;2023-02-17T11:10:30;99401.29;;;0.59;51.50
64139;BME280;50435;43.700;-79.318;2023-02-17T11:12:59;99423.82;;;0.49;51.05
64139;BME280;50435;43.700;-79.318;2023-02-17T11:15:29;99412.78;;;0.22;51.19
64139;BME280;50435;43.700;-79.318;2023-02-17T11:18:00;99430.98;;;0.28;51.45
64139;BME280;50435;43.700;-79.318;2023-02-17T11:20:35;99436.18;;;0.24;51.24
64139;BME280;50435;43.700;-79.318;2023-02-17T11:23:21;99467.87;;;0.20;51.40
64139;BME280;50435;43.700;-79.318;2023-02-17T11:26:00;99456.77;;;-0.01;51.65
64139;BME280;50435;43.700;-79.318;2023-02-17T11:28:28;99466.25;;;-0.01;51.79
64139;BME280;50435;43.700;-79.318;2023-02-17T11:30:57;99464.80;;;-0.02;51.61
64139;BME280;50435;43.700;-79.318;2023-02-17T11:33:31;99461.97;;;-0.07;51.65
64139;BME280;50435;43.700;-79.318;2023-02-17T11:35:59;99462.27;;;-0.06;51.67
64139;BME280;50435;43.700;-79.318;2023-02-17T11:38:33;99465.27;;;0.26;51.23
64139;BME280;50435;43.700;-79.318;2023-02-17T11:41:08;99480.48;;;-0.17;51.61
64139;BME280;50435;43.700;-79.318;2023-02-17T11:43:36;99480.42;;;-0.22;51.51
64139;BME280;50435;43.700;-79.318;2023-02-17T11:46:20;99485.69;;;-0.02;51.35
64139;BME280;50435;43.700;-79.318;2023-02-17T11:49:01;99485.83;;;-0.24;51.47
64139;BME280;50435;43.700;-79.318;2023-02-17T11:51:42;99484.77;;;-0.39;51.81
64139;BME280;50435;43.700;-79.318;2023-02-17T11:54:22;99509.75;;;-0.09;51.53
64139;BME280;50435;43.700;-79.318;2023-02-17T11:57:01;99524.99;;;-0.57;52.02
64139;BME280;50435;43.700;-79.318;2023-02-17T11:59:39;99534.78;;;-0.47;51.56
64139;BME280;50435;43.700;-79.318;2023-02-17T12:02:17;99533.86;;;-0.52;51.56
64139;BME280;50435;43.700;-79.318;2023-02-17T12:04:59;99554.58;;;-0.37;51.77
64139;BME280;50435;43.700;-79.318;2023-02-17T12:07:39;99543.43;;;-0.58;51.59
64139;BME280;50435;43.700;-79.318;2023-02-17T12:10:18;99565.12;;;-0.18;51.74
64139;BME280;50435;43.700;-79.318;2023-02-17T12:12:57;99561.98;;;-0.14;51.61
64139;BME280;50435;43.700;-79.318;2023-02-17T12:15:38;99561.33;;;-0.39;51.59
64139;BME280;50435;43.700;-79.318;2023-02-17T12:18:22;99562.98;;;-0.70;51.63
64139;BME280;50435;43.700;-79.318;2023-02-17T12:21:00;99566.94;;;-0.94;52.04
64139;BME280;50435;43.700;-79.318;2023-02-17T12:23:47;99581.69;;;-0.27;51.71
64139;BME280;50435;43.700;-79.318;2023-02-17T12:26:23;99572.93;;;-1.02;52.64
64139;BME280;50435;43.700;-79.318;2023-02-17T12:29:09;99584.07;;;-0.95;52.10
64139;BME280;50435;43.700;-79.318;2023-02-17T12:31:51;99573.24;;;-0.56;52.01
64139;BME280;50435;43.700;-79.318;2023-02-17T12:34:27;99586.38;;;-0.50;51.87
64139;BME280;50435;43.700;-79.318;2023-02-17T12:36:56;99580.99;;;-1.00;51.85
64139;BME280;50435;43.700;-79.318;2023-02-17T12:39:30;99589.29;;;-0.83;52.00
64139;BME280;50435;43.700;-79.318;2023-02-17T12:42:02;99599.17;;;-0.72;51.99
64139;BME280;50435;43.700;-79.318;2023-02-17T12:44:37;99605.87;;;-0.66;51.81
64139;BME280;50435;43.700;-79.318;2023-02-17T12:47:13;99622.17;;;-1.10;52.24
64139;BME280;50435;43.700;-79.318;2023-02-17T12:49:46;99642.67;;;-1.11;52.30
64139;BME280;50435;43.700;-79.318;2023-02-17T12:52:18;99651.66;;;-0.84;51.91
64139;BME280;50435;43.700;-79.318;2023-02-17T12:54:49;99654.76;;;-1.08;52.39
64139;BME280;50435;43.700;-79.318;2023-02-17T12:57:22;99654.17;;;-0.99;51.93
64139;BME280;50435;43.700;-79.318;2023-02-17T12:59:51;99661.46;;;-1.10;52.28
64139;BME280;50435;43.700;-79.318;2023-02-17T13:02:24;99670.48;;;-1.36;52.61
64139;BME280;50435;43.700;-79.318;2023-02-17T13:04:54;99677.36;;;-1.30;52.20